sensor_id;sensor_type;location;lat;lon;timestamp;P1;durP1;ratioP1;P2;durP2;ratioP2
6354;SDS011;3210;48.708;9.030;2023-05-01T00:01:24;4.13;;;3.43;;
6354;SDS011;3210;48.708;9.030;2023-05-01T00:03:50;4.93;;;2.57;;
6354;SDS011;3210;48.708;9.030;2023-05-01T00:06:18;2.90;;;2.70;;
6354;SDS011;3210;48.708;9.030;2023-05-01T00:08:45;6.63;;;3.10;;
6354;SDS011;3210;48.708;9.030;2023-05-01T00:11:13;2.80;;;2.60;;
6354;SDS011;3210;48.708;9.030;2023-05-01T00:13:40;3.30;;;3.00;;
6354;SDS011;3210;48.708;9.030;2023-05-01T00:16:07;2.93;;;2.73;;
6354;SDS011;3210;48.708;9.030;2023-05-01T00:18:34;3.77;;;3.47;;
6354;SDS011;3210;48.708;9.030;2023-05-01T00:21:01;3.43;;;3.03;;
6354;SDS011;3210;48.708;9.030;2023-05-01T00:23:28;3.47;;;3.17;;
6354;SDS011;3210;48.708;9.030;2023-05-01T00:25:55;5.37;;;3.17;;
6354;SDS011;3210;48.708;9.030;2023-05-01T00:28:23;4.80;;;2.73;;
6354;SDS011;3210;48.708;9.030;2023-05-01T00:30:49;3.67;;;3.37;;
6354;SDS011;3210;48.708;9.030;2023-05-01T00:33:16;3.83;;;2.80;;
6354;SDS011;3210;48.708;9.030;2023-05-01T00:35:43;3.43;;;3.13;;
6354;SDS011;3210;48.708;9.030;2023-05-01T00:38:10;7.37;;;2.87;;
6354;SDS011;3210;48.708;9.030;2023-05-01T00:40:46;13.73;;;3.90;;
6354;SDS011;3210;48.708;9.030;2023-05-01T00:43:12;11.10;;;3.60;;
6354;SDS011;3210;48.708;9.030;2023-05-01T00:45:42;3.10;;;2.83;;
6354;SDS011;3210;48.708;9.030;2023-05-01T00:48:10;4.40;;;2.83;;
6354;SDS011;3210;48.708;9.030;2023-05-01T00:50:37;3.33;;;3.03;;
6354;SDS011;3210;48.708;9.030;2023-05-01T00:53:04;4.43;;;3.90;;
6354;SDS011;3210;48.708;9.030;2023-05-01T00:55:31;3.43;;;3.13;;
6354;SDS011;3210;48.708;9.030;2023-05-01T00:57:59;4.10;;;3.80;;
6354;SDS011;3210;48.708;9.030;2023-05-01T01:00:26;3.37;;;3.07;;
6354;SDS011;3210;48.708;9.030;2023-05-01T01:02:54;3.37;;;3.07;;
6354;SDS011;3210;48.708;9.030;2023-05-01T01:05:22;4.93;;;3.73;;
6354;SDS011;3210;48.708;9.030;2023-05-01T01:07:52;3.10;;;2.90;;
6354;SDS011;3210;48.708;9.030;2023-05-01T01:10:30;3.40;;;2.90;;
6354;SDS011;3210;48.708;9.030;2023-05-01T01:13:07;6.27;;;4.03;;
6354;SDS011;3210;48.708;9.030;2023-05-01T01:15:41;4.37;;;3.60;;
6354;SDS011;3210;48.708;9.030;2023-05-01T01:18:15;4.47;;;3.77;;
6354;SDS011;3210;48.708;9.030;2023-05-01T01:20:47;3.87;;;3.40;;
6354;SDS011;3210;48.708;9.030;2023-05-01T01:26:42;6.70;;;3.70;;
6354;SDS011;3210;48.708;9.030;2023-05-01T01:32:31;4.13;;;3.63;;
6354;SDS011;3210;48.708;9.030;2023-05-01T01:35:17;8.00;;;3.80;;
6354;SDS011;3210;48.708;9.030;2023-05-01T01:37:47;3.57;;;2.83;;
6354;SDS011;3210;48.708;9.030;2023-05-01T01:40:17;5.37;;;3.40;;
6354;SDS011;3210;48.708;9.030;2023-05-01T01:42:48;4.20;;;3.80;;
6354;SDS011;3210;48.708;9.030;2023-05-01T01:45:20;4.83;;;4.33;;
6354;SDS011;3210;48.708;9.030;2023-05-01T01:47:49;4.57;;;3.60;;
6354;SDS011;3210;48.708;9.030;2023-05-01T01:50:20;4.50;;;4.10;;
6354;SDS011;3210;48.708;9.030;2023-05-01T01:52:50;5.60;;;3.93;;
6354;SDS011;3210;48.708;9.030;2023-05-01T01:55:20;5.90;;;4.10;;
6354;SDS011;3210;48.708;9.030;2023-05-01T01:57:48;3.83;;;3.30;;
6354;SDS011;3210;48.708;9.030;2023-05-01T02:00:17;4.47;;;4.10;;
6354;SDS011;3210;48.708;9.030;2023-05-01T02:02:45;4.43;;;3.80;;
6354;SDS011;3210;48.708;9.030;2023-05-01T02:05:14;3.77;;;3.30;;
6354;SDS011;3210;48.708;9.030;2023-05-01T02:07:44;6.40;;;3.60;;
6354;SDS011;3210;48.708;9.030;2023-05-01T02:10:14;3.97;;;3.27;;
6354;SDS011;3210;48.708;9.030;2023-05-01T02:12:43;3.23;;;3.03;;
6354;SDS011;3210;48.708;9.030;2023-05-01T02:15:13;8.13;;;3.23;;
6354;SDS011;3210;48.708;9.030;2023-05-01T02:17:42;4.73;;;4.10;;
6354;SDS011;3210;48.708;9.030;2023-05-01T02:20:10;5.10;;;4.03;;
6354;SDS011;3210;48.708;9.030;2023-05-01T02:22:37;5.17;;;3.47;;
6354;SDS011;3210;48.708;9.030;2023-05-01T02:25:07;3.40;;;3.20;;
6354;SDS011;3210;48.708;9.030;2023-05-01T02:27:37;4.23;;;3.80;;
6354;SDS011;3210;48.708;9.030;2023-05-01T02:30:06;6.20;;;3.47;;
6354;SDS011;3210;48.708;9.030;2023-05-01T02:32:33;3.57;;;3.27;;
6354;SDS011;3210;48.708;9.030;2023-05-01T02:35:00;5.83;;;3.57;;
6354;SDS011;3210;48.708;9.030;2023-05-01T02:37:27;3.90;;;3.60;;
6354;SDS011;3210;48.708;9.030;2023-05-01T02:39:55;3.17;;;2.90;;
6354;SDS011;3210;48.708;9.030;2023-05-01T02:42:23;3.17;;;2.97;;
6354;SDS011;3210;48.708;9.030;2023-05-01T02:44:53;3.97;;;3.67;;
6354;SDS011;3210;48.708;9.030;2023-05-01T02:47:22;4.00;;;3.63;;
6354;SDS011;3210;48.708;9.030;2023-05-01T02:49:52;4.67;;;4.00;;
6354;SDS011;3210;48.708;9.030;2023-05-01T02:52:19;4.00;;;3.70;;
6354;SDS011;3210;48.708;9.030;2023-05-01T02:54:47;5.33;;;4.10;;
6354;SDS011;3210;48.708;9.030;2023-05-01T02:57:16;5.10;;;4.20;;
6354;SDS011;3210;48.708;9.030;2023-05-01T02:59:45;3.47;;;3.23;;
6354;SDS011;3210;48.708;9.030;2023-05-01T03:02:12;3.70;;;3.40;;
6354;SDS011;3210;48.708;9.030;2023-05-01T03:04:39;5.73;;;3.60;;
6354;SDS011;3210;48.708;9.030;2023-05-01T03:07:06;5.67;;;4.47;;
6354;SDS011;3210;48.708;9.030;2023-05-01T03:09:33;5.70;;;4.40;;
6354;SDS011;3210;48.708;9.030;2023-05-01T03:12:00;4.07;;;3.67;;
6354;SDS011;3210;48.708;9.030;2023-05-01T03:14:27;5.60;;;3.63;;
6354;SDS011;3210;48.708;9.030;2023-05-01T03:16:56;4.13;;;3.70;;
6354;SDS011;3210;48.708;9.030;2023-05-01T03:19:22;11.60;;;4.07;;
6354;SDS011;3210;48.708;9.030;2023-05-01T03:21:49;4.07;;;3.67;;
6354;SDS011;3210;48.708;9.030;2023-05-01T03:24:16;3.63;;;3.17;;
6354;SDS011;3210;48.708;9.030;2023-05-01T03:26:43;3.80;;;3.47;;
6354;SDS011;3210;48.708;9.030;2023-05-01T03:29:09;8.13;;;3.30;;
6354;SDS011;3210;48.708;9.030;2023-05-01T03:31:37;6.67;;;4.17;;
6354;SDS011;3210;48.708;9.030;2023-05-01T03:34:05;5.30;;;3.63;;
6354;SDS011;3210;48.708;9.030;2023-05-01T03:36:32;7.83;;;3.47;;
6354;SDS011;3210;48.708;9.030;2023-05-01T03:38:59;4.80;;;3.50;;
6354;SDS011;3210;48.708;9.030;2023-05-01T03:41:26;5.17;;;4.20;;
6354;SDS011;3210;48.708;9.030;2023-05-01T03:43:52;4.70;;;4.13;;
6354;SDS011;3210;48.708;9.030;2023-05-01T03:46:19;3.80;;;3.27;;
6354;SDS011;3210;48.708;9.030;2023-05-01T03:48:46;4.33;;;3.80;;
6354;SDS011;3210;48.708;9.030;2023-05-01T03:51:14;4.10;;;3.70;;
6354;SDS011;3210;48.708;9.030;2023-05-01T03:53:41;4.40;;;4.00;;
6354;SDS011;3210;48.708;9.030;2023-05-01T03:56:08;5.20;;;3.80;;
6354;SDS011;3210;48.708;9.030;2023-05-01T03:58:35;3.77;;;3.47;;
6354;SDS011;3210;48.708;9.030;2023-05-01T04:01:01;3.57;;;3.27;;
6354;SDS011;3210;48.708;9.030;2023-05-01T04:03:28;4.23;;;2.63;;
6354;SDS011;3210;48.708;9.030;2023-05-01T04:05:55;4.60;;;4.13;;
6354;SDS011;3210;48.708;9.030;2023-05-01T04:08:24;3.90;;;3.60;;
6354;SDS011;3210;48.708;9.030;2023-05-01T04:10:50;3.93;;;3.20;;
6354;SDS011;3210;48.708;9.030;2023-05-01T04:13:17;7.53;;;3.77;;
6354;SDS011;3210;48.708;9.030;2023-05-01T04:15:44;4.60;;;3.50;;
6354;SDS011;3210;48.708;9.030;2023-05-01T04:18:11;5.50;;;3.77;;
6354;SDS011;3210;48.708;9.030;2023-05-01T04:20:38;4.60;;;4.10;;
6354;SDS011;3210;48.708;9.030;2023-05-01T04:23:05;3.73;;;3.43;;
6354;SDS011;3210;48.708;9.030;2023-05-01T04:25:34;9.50;;;4.00;;
6354;SDS011;3210;48.708;9.030;2023-05-01T04:28:01;3.50;;;3.20;;
6354;SDS011;3210;48.708;9.030;2023-05-01T04:30:28;7.10;;;3.80;;
6354;SDS011;3210;48.708;9.030;2023-05-01T04:32:55;7.57;;;3.40;;
6354;SDS011;3210;48.708;9.030;2023-05-01T04:35:22;3.93;;;3.20;;
6354;SDS011;3210;48.708;9.030;2023-05-01T04:37:49;3.73;;;3.43;;
6354;SDS011;3210;48.708;9.030;2023-05-01T04:40:16;5.10;;;4.10;;
6354;SDS011;3210;48.708;9.030;2023-05-01T04:42:44;3.47;;;3.20;;
6354;SDS011;3210;48.708;9.030;2023-05-01T04:45:11;4.57;;;3.83;;
6354;SDS011;3210;48.708;9.030;2023-05-01T04:47:38;3.80;;;3.40;;
6354;SDS011;3210;48.708;9.030;2023-05-01T04:50:05;4.33;;;3.93;;
6354;SDS011;3210;48.708;9.030;2023-05-01T04:52:32;4.50;;;3.87;;
6354;SDS011;3210;48.708;9.030;2023-05-01T04:54:59;5.50;;;3.70;;
6354;SDS011;3210;48.708;9.030;2023-05-01T04:57:27;4.17;;;3.83;;
6354;SDS011;3210;48.708;9.030;2023-05-01T04:59:55;5.17;;;4.60;;
6354;SDS011;3210;48.708;9.030;2023-05-01T05:02:23;5.50;;;3.90;;
6354;SDS011;3210;48.708;9.030;2023-05-01T05:04:49;5.80;;;4.47;;
6354;SDS011;3210;48.708;9.030;2023-05-01T05:07:17;4.70;;;3.90;;
6354;SDS011;3210;48.708;9.030;2023-05-01T05:09:44;10.00;;;5.03;;
6354;SDS011;3210;48.708;9.030;2023-05-01T05:12:11;5.40;;;4.47;;
6354;SDS011;3210;48.708;9.030;2023-05-01T05:14:39;5.53;;;4.10;;
6354;SDS011;3210;48.708;9.030;2023-05-01T05:17:07;7.53;;;5.47;;
6354;SDS011;3210;48.708;9.030;2023-05-01T05:19:34;5.00;;;4.40;;
6354;SDS011;3210;48.708;9.030;2023-05-01T05:22:00;5.90;;;5.07;;
6354;SDS011;3210;48.708;9.030;2023-05-01T05:24:27;9.67;;;4.70;;
6354;SDS011;3210;48.708;9.030;2023-05-01T05:26:54;5.50;;;5.00;;
6354;SDS011;3210;48.708;9.030;2023-05-01T05:29:22;6.40;;;4.60;;
6354;SDS011;3210;48.708;9.030;2023-05-01T05:31:48;10.30;;;4.37;;
6354;SDS011;3210;48.708;9.030;2023-05-01T05:34:17;6.10;;;4.50;;
6354;SDS011;3210;48.708;9.030;2023-05-01T05:36:43;5.13;;;4.67;;
6354;SDS011;3210;48.708;9.030;2023-05-01T05:39:10;5.73;;;5.13;;
6354;SDS011;3210;48.708;9.030;2023-05-01T05:41:37;6.67;;;4.90;;
6354;SDS011;3210;48.708;9.030;2023-05-01T05:44:04;7.63;;;4.63;;
6354;SDS011;3210;48.708;9.030;2023-05-01T05:46:31;4.87;;;4.20;;
6354;SDS011;3210;48.708;9.030;2023-05-01T05:48:58;9.10;;;5.37;;
6354;SDS011;3210;48.708;9.030;2023-05-01T05:51:26;6.30;;;5.50;;
6354;SDS011;3210;48.708;9.030;2023-05-01T05:53:53;9.23;;;5.90;;
6354;SDS011;3210;48.708;9.030;2023-05-01T05:56:19;6.00;;;5.10;;
6354;SDS011;3210;48.708;9.030;2023-05-01T05:58:47;7.80;;;5.47;;
6354;SDS011;3210;48.708;9.030;2023-05-01T06:01:13;5.40;;;4.97;;
6354;SDS011;3210;48.708;9.030;2023-05-01T06:03:40;5.23;;;4.73;;
6354;SDS011;3210;48.708;9.030;2023-05-01T06:06:07;6.50;;;5.90;;
6354;SDS011;3210;48.708;9.030;2023-05-01T06:08:35;7.77;;;4.80;;
6354;SDS011;3210;48.708;9.030;2023-05-01T06:11:02;7.80;;;5.10;;
6354;SDS011;3210;48.708;9.030;2023-05-01T06:13:29;7.20;;;6.37;;
6354;SDS011;3210;48.708;9.030;2023-05-01T06:15:56;7.13;;;6.43;;
6354;SDS011;3210;48.708;9.030;2023-05-01T06:18:23;6.77;;;6.03;;
6354;SDS011;3210;48.708;9.030;2023-05-01T06:20:50;6.40;;;5.67;;
6354;SDS011;3210;48.708;9.030;2023-05-01T06:23:18;7.63;;;6.23;;
6354;SDS011;3210;48.708;9.030;2023-05-01T06:25:46;7.83;;;5.90;;
6354;SDS011;3210;48.708;9.030;2023-05-01T06:28:13;7.77;;;6.50;;
6354;SDS011;3210;48.708;9.030;2023-05-01T06:30:40;7.53;;;6.70;;
6354;SDS011;3210;48.708;9.030;2023-05-01T06:33:07;6.70;;;5.93;;
6354;SDS011;3210;48.708;9.030;2023-05-01T06:35:34;11.57;;;6.90;;
6354;SDS011;3210;48.708;9.030;2023-05-01T06:38:04;6.20;;;5.60;;
6354;SDS011;3210;48.708;9.030;2023-05-01T06:40:31;7.20;;;5.63;;
6354;SDS011;3210;48.708;9.030;2023-05-01T06:43:00;8.27;;;7.00;;
6354;SDS011;3210;48.708;9.030;2023-05-01T06:45:27;8.00;;;6.50;;
6354;SDS011;3210;48.708;9.030;2023-05-01T06:47:53;10.23;;;6.63;;
6354;SDS011;3210;48.708;9.030;2023-05-01T06:50:20;9.00;;;6.57;;
6354;SDS011;3210;48.708;9.030;2023-05-01T06:52:47;11.47;;;6.80;;
6354;SDS011;3210;48.708;9.030;2023-05-01T06:55:14;6.33;;;5.73;;
6354;SDS011;3210;48.708;9.030;2023-05-01T06:57:41;8.67;;;6.90;;
6354;SDS011;3210;48.708;9.030;2023-05-01T07:00:09;7.40;;;6.37;;
6354;SDS011;3210;48.708;9.030;2023-05-01T07:02:37;10.13;;;7.13;;
6354;SDS011;3210;48.708;9.030;2023-05-01T07:05:04;7.07;;;6.37;;
6354;SDS011;3210;48.708;9.030;2023-05-01T07:07:32;7.93;;;6.70;;
6354;SDS011;3210;48.708;9.030;2023-05-01T07:09:59;18.23;;;6.57;;
6354;SDS011;3210;48.708;9.030;2023-05-01T07:12:25;6.23;;;5.63;;
6354;SDS011;3210;48.708;9.030;2023-05-01T07:14:53;7.00;;;6.30;;
6354;SDS011;3210;48.708;9.030;2023-05-01T07:17:22;9.10;;;6.37;;
6354;SDS011;3210;48.708;9.030;2023-05-01T07:19:49;11.37;;;6.50;;
6354;SDS011;3210;48.708;9.030;2023-05-01T07:22:15;6.70;;;5.97;;
6354;SDS011;3210;48.708;9.030;2023-05-01T07:24:42;7.03;;;6.03;;
6354;SDS011;3210;48.708;9.030;2023-05-01T07:27:09;8.13;;;6.13;;
6354;SDS011;3210;48.708;9.030;2023-05-01T07:29:36;9.47;;;5.63;;
6354;SDS011;3210;48.708;9.030;2023-05-01T07:32:04;6.23;;;5.63;;
6354;SDS011;3210;48.708;9.030;2023-05-01T07:34:32;5.93;;;5.43;;
6354;SDS011;3210;48.708;9.030;2023-05-01T07:36:59;6.90;;;6.00;;
6354;SDS011;3210;48.708;9.030;2023-05-01T07:39:26;7.07;;;5.73;;
6354;SDS011;3210;48.708;9.030;2023-05-01T07:41:53;6.57;;;5.60;;
6354;SDS011;3210;48.708;9.030;2023-05-01T07:44:22;8.60;;;5.73;;
6354;SDS011;3210;48.708;9.030;2023-05-01T07:46:49;6.50;;;5.43;;
6354;SDS011;3210;48.708;9.030;2023-05-01T07:49:16;6.10;;;5.20;;
6354;SDS011;3210;48.708;9.030;2023-05-01T07:51:44;6.50;;;5.77;;
6354;SDS011;3210;48.708;9.030;2023-05-01T07:54:10;10.93;;;5.60;;
6354;SDS011;3210;48.708;9.030;2023-05-01T07:56:39;5.90;;;5.30;;
6354;SDS011;3210;48.708;9.030;2023-05-01T07:59:06;5.53;;;5.00;;
6354;SDS011;3210;48.708;9.030;2023-05-01T08:01:33;9.03;;;6.27;;
6354;SDS011;3210;48.708;9.030;2023-05-01T08:04:01;7.27;;;5.27;;
6354;SDS011;3210;48.708;9.030;2023-05-01T08:06:28;7.03;;;6.27;;
6354;SDS011;3210;48.708;9.030;2023-05-01T08:08:57;7.83;;;5.60;;
6354;SDS011;3210;48.708;9.030;2023-05-01T08:11:23;6.17;;;5.57;;
6354;SDS011;3210;48.708;9.030;2023-05-01T08:13:51;8.20;;;6.50;;
6354;SDS011;3210;48.708;9.030;2023-05-01T08:16:17;6.50;;;5.13;;
6354;SDS011;3210;48.708;9.030;2023-05-01T08:18:45;6.33;;;5.33;;
6354;SDS011;3210;48.708;9.030;2023-05-01T08:21:11;7.23;;;5.97;;
6354;SDS011;3210;48.708;9.030;2023-05-01T08:23:38;8.23;;;5.53;;
6354;SDS011;3210;48.708;9.030;2023-05-01T08:26:06;6.70;;;5.97;;
6354;SDS011;3210;48.708;9.030;2023-05-01T08:28:33;6.70;;;6.07;;
6354;SDS011;3210;48.708;9.030;2023-05-01T08:31:00;8.00;;;6.07;;
6354;SDS011;3210;48.708;9.030;2023-05-01T08:33:27;13.67;;;6.67;;
6354;SDS011;3210;48.708;9.030;2023-05-01T08:35:54;5.67;;;5.17;;
6354;SDS011;3210;48.708;9.030;2023-05-01T08:38:21;6.77;;;5.30;;
6354;SDS011;3210;48.708;9.030;2023-05-01T08:40:50;8.60;;;5.83;;
6354;SDS011;3210;48.708;9.030;2023-05-01T08:43:19;8.63;;;7.07;;
6354;SDS011;3210;48.708;9.030;2023-05-01T08:45:46;6.70;;;6.00;;
6354;SDS011;3210;48.708;9.030;2023-05-01T08:50:44;5.60;;;4.53;;
6354;SDS011;3210;48.708;9.030;2023-05-01T08:53:12;5.47;;;4.97;;
6354;SDS011;3210;48.708;9.030;2023-05-01T08:55:42;7.90;;;5.27;;
6354;SDS011;3210;48.708;9.030;2023-05-01T08:58:10;5.20;;;4.70;;
6354;SDS011;3210;48.708;9.030;2023-05-01T09:00:40;6.27;;;4.90;;
6354;SDS011;3210;48.708;9.030;2023-05-01T09:03:08;6.83;;;4.37;;
6354;SDS011;3210;48.708;9.030;2023-05-01T09:05:37;5.70;;;4.50;;
6354;SDS011;3210;48.708;9.030;2023-05-01T09:08:04;6.20;;;5.17;;
6354;SDS011;3210;48.708;9.030;2023-05-01T09:10:32;6.00;;;5.37;;
6354;SDS011;3210;48.708;9.030;2023-05-01T09:12:59;5.63;;;5.00;;
6354;SDS011;3210;48.708;9.030;2023-05-01T09:15:27;5.50;;;4.60;;
6354;SDS011;3210;48.708;9.030;2023-05-01T09:17:56;5.33;;;4.83;;
6354;SDS011;3210;48.708;9.030;2023-05-01T09:20:25;5.60;;;5.10;;
6354;SDS011;3210;48.708;9.030;2023-05-01T09:22:54;9.73;;;4.77;;
6354;SDS011;3210;48.708;9.030;2023-05-01T09:25:21;6.43;;;4.50;;
6354;SDS011;3210;48.708;9.030;2023-05-01T09:27:48;5.73;;;4.53;;
6354;SDS011;3210;48.708;9.030;2023-05-01T09:30:31;6.77;;;4.57;;
6354;SDS011;3210;48.708;9.030;2023-05-01T09:33:09;4.93;;;4.40;;
6354;SDS011;3210;48.708;9.030;2023-05-01T09:35:47;5.50;;;4.93;;
6354;SDS011;3210;48.708;9.030;2023-05-01T09:38:19;5.10;;;4.60;;
6354;SDS011;3210;48.708;9.030;2023-05-01T09:40:46;5.63;;;4.93;;
6354;SDS011;3210;48.708;9.030;2023-05-01T09:43:14;5.43;;;4.30;;
6354;SDS011;3210;48.708;9.030;2023-05-01T09:45:58;5.60;;;4.30;;
6354;SDS011;3210;48.708;9.030;2023-05-01T09:48:27;5.40;;;4.90;;
6354;SDS011;3210;48.708;9.030;2023-05-01T09:50:54;4.90;;;4.40;;
6354;SDS011;3210;48.708;9.030;2023-05-01T09:53:32;5.60;;;4.30;;
6354;SDS011;3210;48.708;9.030;2023-05-01T09:56:02;6.83;;;4.60;;
6354;SDS011;3210;48.708;9.030;2023-05-01T09:58:29;4.30;;;3.90;;
6354;SDS011;3210;48.708;9.030;2023-05-01T10:00:56;5.47;;;4.67;;
6354;SDS011;3210;48.708;9.030;2023-05-01T10:03:23;5.37;;;4.43;;
6354;SDS011;3210;48.708;9.030;2023-05-01T10:05:52;5.17;;;4.50;;
6354;SDS011;3210;48.708;9.030;2023-05-01T10:08:20;5.07;;;4.67;;
6354;SDS011;3210;48.708;9.030;2023-05-01T10:10:58;4.40;;;4.00;;
6354;SDS011;3210;48.708;9.030;2023-05-01T10:13:25;6.30;;;3.80;;
6354;SDS011;3210;48.708;9.030;2023-05-01T10:15:52;4.43;;;4.03;;
6354;SDS011;3210;48.708;9.030;2023-05-01T10:18:19;4.93;;;3.47;;
6354;SDS011;3210;48.708;9.030;2023-05-01T10:20:46;4.80;;;3.77;;
6354;SDS011;3210;48.708;9.030;2023-05-01T10:23:14;4.33;;;3.93;;
6354;SDS011;3210;48.708;9.030;2023-05-01T10:25:41;4.70;;;4.10;;
6354;SDS011;3210;48.708;9.030;2023-05-01T10:28:09;4.67;;;4.20;;
6354;SDS011;3210;48.708;9.030;2023-05-01T10:30:38;4.30;;;4.00;;
6354;SDS011;3210;48.708;9.030;2023-05-01T10:33:06;4.10;;;3.40;;
6354;SDS011;3210;48.708;9.030;2023-05-01T10:35:34;6.53;;;3.90;;
6354;SDS011;3210;48.708;9.030;2023-05-01T10:38:05;4.20;;;3.80;;
6354;SDS011;3210;48.708;9.030;2023-05-01T10:40:48;5.67;;;3.83;;
6354;SDS011;3210;48.708;9.030;2023-05-01T10:43:16;4.33;;;3.67;;
6354;SDS011;3210;48.708;9.030;2023-05-01T10:45:45;6.87;;;4.40;;
6354;SDS011;3210;48.708;9.030;2023-05-01T10:51:13;4.33;;;3.73;;
6354;SDS011;3210;48.708;9.030;2023-05-01T10:53:42;4.80;;;3.80;;
6354;SDS011;3210;48.708;9.030;2023-05-01T10:59:08;6.07;;;3.90;;
6354;SDS011;3210;48.708;9.030;2023-05-01T11:01:37;4.37;;;3.97;;
6354;SDS011;3210;48.708;9.030;2023-05-01T11:04:05;4.20;;;3.80;;
6354;SDS011;3210;48.708;9.030;2023-05-01T11:06:33;4.43;;;4.03;;
6354;SDS011;3210;48.708;9.030;2023-05-01T11:09:01;3.93;;;3.50;;
6354;SDS011;3210;48.708;9.030;2023-05-01T11:12:06;3.87;;;3.43;;
6354;SDS011;3210;48.708;9.030;2023-05-01T11:15:00;5.57;;;3.77;;
6354;SDS011;3210;48.708;9.030;2023-05-01T11:17:44;3.90;;;3.60;;
6354;SDS011;3210;48.708;9.030;2023-05-01T11:20:11;4.07;;;3.30;;
6354;SDS011;3210;48.708;9.030;2023-05-01T11:22:39;4.50;;;3.87;;
6354;SDS011;3210;48.708;9.030;2023-05-01T11:25:18;4.30;;;3.90;;
6354;SDS011;3210;48.708;9.030;2023-05-01T11:27:46;3.83;;;3.40;;
6354;SDS011;3210;48.708;9.030;2023-05-01T11:30:13;4.10;;;3.50;;
6354;SDS011;3210;48.708;9.030;2023-05-01T11:32:42;3.87;;;3.50;;
6354;SDS011;3210;48.708;9.030;2023-05-01T11:35:14;3.27;;;2.97;;
6354;SDS011;3210;48.708;9.030;2023-05-01T11:37:42;3.57;;;3.27;;
6354;SDS011;3210;48.708;9.030;2023-05-01T11:40:18;4.20;;;3.43;;
6354;SDS011;3210;48.708;9.030;2023-05-01T11:42:46;3.30;;;3.00;;
6354;SDS011;3210;48.708;9.030;2023-05-01T11:45:14;4.67;;;3.47;;
6354;SDS011;3210;48.708;9.030;2023-05-01T11:47:41;4.30;;;3.90;;
6354;SDS011;3210;48.708;9.030;2023-05-01T11:50:08;5.20;;;4.77;;
6354;SDS011;3210;48.708;9.030;2023-05-01T11:52:42;11.27;;;4.03;;
6354;SDS011;3210;48.708;9.030;2023-05-01T11:55:10;5.93;;;4.70;;
6354;SDS011;3210;48.708;9.030;2023-05-01T11:57:45;6.57;;;5.10;;
6354;SDS011;3210;48.708;9.030;2023-05-01T12:00:13;9.70;;;6.50;;
6354;SDS011;3210;48.708;9.030;2023-05-01T12:02:53;6.10;;;5.10;;
6354;SDS011;3210;48.708;9.030;2023-05-01T12:05:22;8.43;;;5.10;;
6354;SDS011;3210;48.708;9.030;2023-05-01T12:07:49;6.73;;;5.07;;
6354;SDS011;3210;48.708;9.030;2023-05-01T12:10:16;4.53;;;4.13;;
6354;SDS011;3210;48.708;9.030;2023-05-01T12:12:45;4.60;;;4.20;;
6354;SDS011;3210;48.708;9.030;2023-05-01T12:15:12;6.80;;;5.30;;
6354;SDS011;3210;48.708;9.030;2023-05-01T12:17:39;6.47;;;5.37;;
6354;SDS011;3210;48.708;9.030;2023-05-01T12:20:09;5.97;;;5.37;;
6354;SDS011;3210;48.708;9.030;2023-05-01T12:22:47;7.50;;;5.60;;
6354;SDS011;3210;48.708;9.030;2023-05-01T12:25:14;6.87;;;5.60;;
6354;SDS011;3210;48.708;9.030;2023-05-01T12:27:42;6.33;;;4.90;;
6354;SDS011;3210;48.708;9.030;2023-05-01T12:30:10;8.33;;;6.13;;
6354;SDS011;3210;48.708;9.030;2023-05-01T12:32:37;7.63;;;5.10;;
6354;SDS011;3210;48.708;9.030;2023-05-01T12:35:12;4.90;;;4.50;;
6354;SDS011;3210;48.708;9.030;2023-05-01T12:37:40;12.00;;;5.50;;
6354;SDS011;3210;48.708;9.030;2023-05-01T12:40:11;6.13;;;4.97;;
6354;SDS011;3210;48.708;9.030;2023-05-01T12:42:38;5.43;;;4.93;;
6354;SDS011;3210;48.708;9.030;2023-05-01T12:45:06;5.93;;;4.83;;
6354;SDS011;3210;48.708;9.030;2023-05-01T12:47:36;8.53;;;5.80;;
6354;SDS011;3210;48.708;9.030;2023-05-01T12:50:04;6.67;;;5.23;;
6354;SDS011;3210;48.708;9.030;2023-05-01T12:52:31;6.70;;;5.90;;
6354;SDS011;3210;48.708;9.030;2023-05-01T12:55:02;6.93;;;5.90;;
6354;SDS011;3210;48.708;9.030;2023-05-01T12:57:30;9.87;;;6.10;;
6354;SDS011;3210;48.708;9.030;2023-05-01T12:59:57;5.70;;;5.20;;
6354;SDS011;3210;48.708;9.030;2023-05-01T13:02:28;8.17;;;6.10;;
6354;SDS011;3210;48.708;9.030;2023-05-01T13:05:05;15.30;;;6.27;;
6354;SDS011;3210;48.708;9.030;2023-05-01T13:07:33;7.60;;;6.80;;
6354;SDS011;3210;48.708;9.030;2023-05-01T13:10:01;12.00;;;7.90;;
6354;SDS011;3210;48.708;9.030;2023-05-01T13:12:30;10.73;;;6.63;;
6354;SDS011;3210;48.708;9.030;2023-05-01T13:14:58;18.83;;;8.03;;
6354;SDS011;3210;48.708;9.030;2023-05-01T13:17:25;10.80;;;7.63;;
6354;SDS011;3210;48.708;9.030;2023-05-01T13:19:53;25.90;;;10.93;;
6354;SDS011;3210;48.708;9.030;2023-05-01T13:22:29;10.73;;;8.00;;
6354;SDS011;3210;48.708;9.030;2023-05-01T13:24:57;17.40;;;10.00;;
6354;SDS011;3210;48.708;9.030;2023-05-01T13:27:24;14.37;;;9.17;;
6354;SDS011;3210;48.708;9.030;2023-05-01T13:29:52;14.07;;;9.17;;
6354;SDS011;3210;48.708;9.030;2023-05-01T13:32:22;16.37;;;9.80;;
6354;SDS011;3210;48.708;9.030;2023-05-01T13:34:49;13.53;;;9.83;;
6354;SDS011;3210;48.708;9.030;2023-05-01T13:37:18;13.77;;;10.07;;
6354;SDS011;3210;48.708;9.030;2023-05-01T13:39:47;19.70;;;10.77;;
6354;SDS011;3210;48.708;9.030;2023-05-01T13:42:17;17.80;;;11.30;;
6354;SDS011;3210;48.708;9.030;2023-05-01T13:44:50;16.83;;;10.90;;
6354;SDS011;3210;48.708;9.030;2023-05-01T13:47:17;17.27;;;12.20;;
6354;SDS011;3210;48.708;9.030;2023-05-01T13:49:47;17.23;;;11.30;;
6354;SDS011;3210;48.708;9.030;2023-05-01T13:52:14;14.83;;;10.83;;
6354;SDS011;3210;48.708;9.030;2023-05-01T13:54:42;20.63;;;12.30;;
6354;SDS011;3210;48.708;9.030;2023-05-01T13:57:10;17.80;;;13.60;;
6354;SDS011;3210;48.708;9.030;2023-05-01T13:59:38;13.03;;;10.77;;
6354;SDS011;3210;48.708;9.030;2023-05-01T14:02:17;15.53;;;11.60;;
6354;SDS011;3210;48.708;9.030;2023-05-01T14:04:45;16.57;;;12.50;;
6354;SDS011;3210;48.708;9.030;2023-05-01T14:07:13;19.47;;;12.00;;
6354;SDS011;3210;48.708;9.030;2023-05-01T14:09:43;19.07;;;11.90;;
6354;SDS011;3210;48.708;9.030;2023-05-01T14:12:12;14.93;;;11.70;;
6354;SDS011;3210;48.708;9.030;2023-05-01T14:14:41;15.50;;;11.40;;
6354;SDS011;3210;48.708;9.030;2023-05-01T14:17:13;12.00;;;8.97;;
6354;SDS011;3210;48.708;9.030;2023-05-01T14:19:40;9.43;;;8.50;;
6354;SDS011;3210;48.708;9.030;2023-05-01T14:22:06;8.77;;;6.30;;
6354;SDS011;3210;48.708;9.030;2023-05-01T14:24:34;9.30;;;7.30;;
6354;SDS011;3210;48.708;9.030;2023-05-01T14:27:01;7.33;;;6.63;;
6354;SDS011;3210;48.708;9.030;2023-05-01T14:29:29;8.40;;;6.10;;
6354;SDS011;3210;48.708;9.030;2023-05-01T14:32:00;7.90;;;6.40;;
6354;SDS011;3210;48.708;9.030;2023-05-01T14:34:29;6.20;;;5.60;;
6354;SDS011;3210;48.708;9.030;2023-05-01T14:36:56;10.20;;;5.80;;
6354;SDS011;3210;48.708;9.030;2023-05-01T14:39:23;11.10;;;6.50;;
6354;SDS011;3210;48.708;9.030;2023-05-01T14:41:51;7.40;;;6.70;;
6354;SDS011;3210;48.708;9.030;2023-05-01T14:44:22;11.43;;;5.97;;
6354;SDS011;3210;48.708;9.030;2023-05-01T14:46:54;9.03;;;7.23;;
6354;SDS011;3210;48.708;9.030;2023-05-01T14:49:23;11.27;;;7.20;;
6354;SDS011;3210;48.708;9.030;2023-05-01T14:51:51;14.80;;;8.30;;
6354;SDS011;3210;48.708;9.030;2023-05-01T14:54:18;13.27;;;7.53;;
6354;SDS011;3210;48.708;9.030;2023-05-01T14:56:46;11.73;;;8.07;;
6354;SDS011;3210;48.708;9.030;2023-05-01T14:59:14;19.00;;;9.50;;
6354;SDS011;3210;48.708;9.030;2023-05-01T15:01:41;6.17;;;5.20;;
6354;SDS011;3210;48.708;9.030;2023-05-01T15:04:09;7.07;;;6.37;;
6354;SDS011;3210;48.708;9.030;2023-05-01T15:06:37;9.07;;;5.00;;
6354;SDS011;3210;48.708;9.030;2023-05-01T15:09:03;7.43;;;5.77;;
6354;SDS011;3210;48.708;9.030;2023-05-01T15:11:30;8.40;;;5.50;;
6354;SDS011;3210;48.708;9.030;2023-05-01T15:13:57;9.10;;;4.70;;
6354;SDS011;3210;48.708;9.030;2023-05-01T15:16:24;4.27;;;3.87;;
6354;SDS011;3210;48.708;9.030;2023-05-01T15:18:51;5.50;;;2.80;;
6354;SDS011;3210;48.708;9.030;2023-05-01T15:21:19;4.37;;;3.33;;
6354;SDS011;3210;48.708;9.030;2023-05-01T15:23:46;6.50;;;3.47;;
6354;SDS011;3210;48.708;9.030;2023-05-01T15:26:13;6.87;;;3.50;;
6354;SDS011;3210;48.708;9.030;2023-05-01T15:28:40;3.20;;;2.93;;
6354;SDS011;3210;48.708;9.030;2023-05-01T15:31:07;4.00;;;3.40;;
6354;SDS011;3210;48.708;9.030;2023-05-01T15:33:34;6.90;;;3.60;;
6354;SDS011;3210;48.708;9.030;2023-05-01T15:36:01;8.50;;;4.27;;